Pagina principale
METAR-TAF:

METAR-TAF

Aeroporti :

Cuneo, Italia

Aeroporto di Cuneo-Levaldigi

latitudine: 44-32-47N, longitudine: 007-37-20E, altezza: 386 m

Osservazione

Il bollettino è stato emesso 1 ora e 45 minuti fa, alle 18:50 UTC
Vento 6 kt da nord, variando fra nord/nord-ovest e est/nord-est
Temperature 23°C
Umidità 33%
Pressione 1005 hPa
Visibilità 10 km o più
nessuna nube inferiore a 1500 m e nessun cumulonembo

METAR: LIMZ 251850Z 01006KT 330V060 CAVOK 23/06 Q1005

Ora: 22:35 (20:35 UTC)

Previsione

Il bollettino è stato emesso 3 ore e 35 minuti fa, alle 17:00 UTC
Previsione valida dal 25 alle 18 UTC al 26 alle 18 UTC
Vento 6 kt da direzioni variabili
Visibilità 10 km o più
nessuna nube inferiore a 1500 m e nessun cumulonembo

TAF: LIMZ 251700Z 2518/2618 VRB06KT CAVOK

Osservazioni e previsioni meteorologiche di più di 4000 aeroporti (messaggi METAR e TAF).

Le stazioni disponibili sono rappresentate dai dischi gialli e rossi sulla carta.

Puntare il mouse per vedere il nome della stazione.

Clicca sopra per visualizzare le osservazioni e previsioni meteorologiche.

Per cambiare la mappa : fare clic sui pulsanti verdi con una croce nera per ingrandire, il pulsante verde con un trattino per diminuire, o sulla freccia verde per le mappe adiacenti.


METAR-TAF: